MSC Paola — 9HA2581 — position and weather

sailwx.info

Track history (hours):
 
Tides and Currents Weather Stations Pressure Air Temp Water Temp Dewpoint Dewpoint Depression Visibility Wind Speed Wind Dir Waves Ship Positions

MSC Paola

Last reported at 2017-Nov-25 11:30 UTC. Time now 2017-Nov-25 11:40 UTC.
Position N 37°56' W 008°51'.

Length 243 m; draft 10.5 m.

Type: Ship (hazmat cat A). MMSI: 248931000.

Date/timePositionNaut miles runAvg speedWind from/ knotsBaromVisibWave heightAir tempDewpointWater temp
2017-Nov-25 11:30N 37°56' W 008°51'0 0.0
2017-Nov-25 11:00N 37°56' W 008°51'0 0.0
2017-Nov-25 10:30N 37°56' W 008°51'0 0.0
2017-Nov-25 10:00N 37°56' W 008°51'0 0.0
2017-Nov-25 09:30N 37°56' W 008°51'0 0.0
2017-Nov-25 09:00N 37°56' W 008°51'0 0.0
2017-Nov-25 08:30N 37°56' W 008°51'0 0.0
2017-Nov-25 08:00N 37°56' W 008°51'0 0.0
2017-Nov-25 07:30N 37°56' W 008°51'0 0.0
2017-Nov-25 07:00N 37°56' W 008°51'0 0.3
2017-Nov-25 06:31N 37°56' W 008°51'3 5.5
2017-Nov-25 06:00N 37°53' W 008°50'3 5.2
2017-Nov-25 05:30N 37°51' W 008°52'2 4.1
2017-Nov-25 05:00N 37°51' W 008°55'815.2
2017-Nov-25 04:30N 37°54' W 009°04'816.2
2017-Nov-25 04:00N 37°58' W 009°13'816.2
2017-Nov-25 03:30N 38°01' W 009°22'816.4
2017-Nov-25 03:00N 38°05' W 009°31'816.6
2017-Nov-25 02:30N 38°08' W 009°41'1016.4
2017-Nov-25 01:56N 38°14' W 009°51'716.4
2017-Nov-25 01:30N 38°17' W 009°59'816.2
2017-Nov-25 00:59N 38°21' W 010°09'7516.7
2017-Nov-24 20:28N 38°55' W 011°34'1016.8
2017-Nov-24 19:54N 38°60' W 011°45'1016.9
2017-Nov-24 19:19N 39°04' W 011°56'817.4
2017-Nov-24 18:50N 39°08' W 012°06'  
2017-Nov-16 03:47N 45°35' W 073°30'  
Track history (hours):
 
Tides and Currents Weather Stations Pressure Air Temp Water Temp Dewpoint Dewpoint Depression Visibility Wind Speed Wind Dir Waves Ship Positions

MSC Paola

Last reported at 2017-Nov-25 11:30 UTC. Time now 2017-Nov-25 11:40 UTC.
Position N 37°56' W 008°51'.

Length 243 m; draft 10.5 m.

Type: Ship (hazmat cat A). MMSI: 248931000.

Date/timePositionNaut miles runAvg speedWind from/ knotsBaromVisibWave heightAir tempDewpointWater temp
2017-Nov-25 11:30N 37°56' W 008°51'0 0.0
2017-Nov-25 11:00N 37°56' W 008°51'0 0.0
2017-Nov-25 10:30N 37°56' W 008°51'0 0.0
2017-Nov-25 10:00N 37°56' W 008°51'0 0.0
2017-Nov-25 09:30N 37°56' W 008°51'0 0.0
2017-Nov-25 09:00N 37°56' W 008°51'0 0.0
2017-Nov-25 08:30N 37°56' W 008°51'0 0.0
2017-Nov-25 08:00N 37°56' W 008°51'0 0.0
2017-Nov-25 07:30N 37°56' W 008°51'0 0.0
2017-Nov-25 07:00N 37°56' W 008°51'0 0.3
2017-Nov-25 06:31N 37°56' W 008°51'3 5.5
2017-Nov-25 06:00N 37°53' W 008°50'3 5.2
2017-Nov-25 05:30N 37°51' W 008°52'2 4.1
2017-Nov-25 05:00N 37°51' W 008°55'815.2
2017-Nov-25 04:30N 37°54' W 009°04'816.2
2017-Nov-25 04:00N 37°58' W 009°13'816.2
2017-Nov-25 03:30N 38°01' W 009°22'816.4
2017-Nov-25 03:00N 38°05' W 009°31'816.6
2017-Nov-25 02:30N 38°08' W 009°41'1016.4
2017-Nov-25 01:56N 38°14' W 009°51'716.4
2017-Nov-25 01:30N 38°17' W 009°59'816.2
2017-Nov-25 00:59N 38°21' W 010°09'7516.7
2017-Nov-24 20:28N 38°55' W 011°34'1016.8
2017-Nov-24 19:54N 38°60' W 011°45'1016.9
2017-Nov-24 19:19N 39°04' W 011°56'817.4
2017-Nov-24 18:50N 39°08' W 012°06'  
2017-Nov-16 03:47N 45°35' W 073°30'  

Dump ship's entire track history